Lyndon, Illinois
Current Conditions -  °F | °C
As of 2:15 AM on Monday 26 Jan 2015 (Local Time) from KSQI Reporting Station
Clear Clear  
Wind Chill:   Ceiling: Unl
Heat Index: 16°   Visibility: 10mi
Dew Point: 10°   Wind: 5mph
Humidity: 79%   Direction: 340°NNW
Pressure: 30.03"   Gusts: NA
Location:  41.72°N, 89.93°W
Report Text: KSQI 260815Z AUTO 34004KT 10SM CLR M09/M12 A3003 RMK AO1
Loading
Personal Weather Stations






























Interactive Weather Map New forecast layout! Learn more

10-Day Weather Forecast

Advertisements
Track Severe Weather on mobile